sensor_id;sensor_type;location;lat;lon;timestamp;temperature;humidity
11284;DHT22;5698;47.332;11.180;2023-07-31T00:01:57;12.00;99.90
11284;DHT22;5698;47.332;11.180;2023-07-31T00:04:24;11.90;99.90
11284;DHT22;5698;47.332;11.180;2023-07-31T00:06:51;11.90;99.90
11284;DHT22;5698;47.332;11.180;2023-07-31T00:09:19;11.80;99.90
11284;DHT22;5698;47.332;11.180;2023-07-31T00:11:46;11.70;99.90
11284;DHT22;5698;47.332;11.180;2023-07-31T00:14:13;11.60;99.90
11284;DHT22;5698;47.332;11.180;2023-07-31T00:16:40;11.60;99.90
11284;DHT22;5698;47.332;11.180;2023-07-31T00:19:07;11.50;99.90
11284;DHT22;5698;47.332;11.180;2023-07-31T00:21:34;11.40;99.90
11284;DHT22;5698;47.332;11.180;2023-07-31T00:24:01;11.40;99.90
11284;DHT22;5698;47.332;11.180;2023-07-31T00:26:29;11.30;99.90
11284;DHT22;5698;47.332;11.180;2023-07-31T00:28:56;11.30;99.90
11284;DHT22;5698;47.332;11.180;2023-07-31T00:31:23;11.30;99.90
11284;DHT22;5698;47.332;11.180;2023-07-31T00:33:50;11.30;99.90
11284;DHT22;5698;47.332;11.180;2023-07-31T00:36:17;11.30;99.90
11284;DHT22;5698;47.332;11.180;2023-07-31T00:38:44;11.30;99.90
11284;DHT22;5698;47.332;11.180;2023-07-31T00:41:11;11.30;99.90
11284;DHT22;5698;47.332;11.180;2023-07-31T00:43:40;11.30;99.90
11284;DHT22;5698;47.332;11.180;2023-07-31T00:46:07;11.30;99.90
11284;DHT22;5698;47.332;11.180;2023-07-31T00:48:34;11.20;99.90
11284;DHT22;5698;47.332;11.180;2023-07-31T00:51:01;11.20;99.90
11284;DHT22;5698;47.332;11.180;2023-07-31T00:53:28;11.20;99.90
11284;DHT22;5698;47.332;11.180;2023-07-31T00:55:56;11.20;99.90
11284;DHT22;5698;47.332;11.180;2023-07-31T00:58:23;11.30;99.90
11284;DHT22;5698;47.332;11.180;2023-07-31T01:00:51;11.30;99.90
11284;DHT22;5698;47.332;11.180;2023-07-31T01:03:18;11.40;99.90
11284;DHT22;5698;47.332;11.180;2023-07-31T01:05:52;11.40;99.90
11284;DHT22;5698;47.332;11.180;2023-07-31T01:08:27;11.40;99.90
11284;DHT22;5698;47.332;11.180;2023-07-31T01:11:02;11.50;99.90
11284;DHT22;5698;47.332;11.180;2023-07-31T01:13:34;11.50;99.90
11284;DHT22;5698;47.332;11.180;2023-07-31T01:16:03;11.50;99.90
11284;DHT22;5698;47.332;11.180;2023-07-31T01:18:30;11.60;99.90
11284;DHT22;5698;47.332;11.180;2023-07-31T01:21:03;11.60;99.90
11284;DHT22;5698;47.332;11.180;2023-07-31T01:26:37;11.60;99.90
11284;DHT22;5698;47.332;11.180;2023-07-31T01:29:10;11.70;99.90
11284;DHT22;5698;47.332;11.180;2023-07-31T01:31:40;11.70;99.90
11284;DHT22;5698;47.332;11.180;2023-07-31T01:34:09;11.70;99.90
11284;DHT22;5698;47.332;11.180;2023-07-31T01:36:36;11.70;99.90
11284;DHT22;5698;47.332;11.180;2023-07-31T01:39:03;11.80;99.90
11284;DHT22;5698;47.332;11.180;2023-07-31T01:41:30;11.80;99.90
11284;DHT22;5698;47.332;11.180;2023-07-31T01:43:59;11.80;99.90
11284;DHT22;5698;47.332;11.180;2023-07-31T01:46:26;11.80;99.90
11284;DHT22;5698;47.332;11.180;2023-07-31T01:48:52;11.80;99.90
11284;DHT22;5698;47.332;11.180;2023-07-31T01:51:19;11.80;99.90
11284;DHT22;5698;47.332;11.180;2023-07-31T01:53:46;11.80;99.90
11284;DHT22;5698;47.332;11.180;2023-07-31T01:56:13;11.80;99.90
11284;DHT22;5698;47.332;11.180;2023-07-31T01:58:40;11.80;99.90
11284;DHT22;5698;47.332;11.180;2023-07-31T02:01:09;11.80;99.90
11284;DHT22;5698;47.332;11.180;2023-07-31T02:03:36;11.70;99.90
11284;DHT22;5698;47.332;11.180;2023-07-31T02:06:02;11.60;99.90
11284;DHT22;5698;47.332;11.180;2023-07-31T02:08:29;11.60;99.90
11284;DHT22;5698;47.332;11.180;2023-07-31T02:10:56;11.50;99.90
11284;DHT22;5698;47.332;11.180;2023-07-31T02:13:23;11.50;99.90
11284;DHT22;5698;47.332;11.180;2023-07-31T02:15:50;11.50;99.90
11284;DHT22;5698;47.332;11.180;2023-07-31T02:18:19;11.50;99.90
11284;DHT22;5698;47.332;11.180;2023-07-31T02:20:49;11.50;99.90
11284;DHT22;5698;47.332;11.180;2023-07-31T02:23:16;11.50;99.90
11284;DHT22;5698;47.332;11.180;2023-07-31T02:25:44;11.60;99.90
11284;DHT22;5698;47.332;11.180;2023-07-31T02:28:11;11.60;99.90
11284;DHT22;5698;47.332;11.180;2023-07-31T02:30:38;11.60;99.90
11284;DHT22;5698;47.332;11.180;2023-07-31T02:33:05;11.60;99.90
11284;DHT22;5698;47.332;11.180;2023-07-31T02:35:33;11.60;99.90
11284;DHT22;5698;47.332;11.180;2023-07-31T02:38:00;11.60;99.90
11284;DHT22;5698;47.332;11.180;2023-07-31T02:40:27;11.70;99.90
11284;DHT22;5698;47.332;11.180;2023-07-31T02:42:54;11.70;99.90
11284;DHT22;5698;47.332;11.180;2023-07-31T02:45:21;11.70;99.90
11284;DHT22;5698;47.332;11.180;2023-07-31T02:47:48;11.70;99.90
11284;DHT22;5698;47.332;11.180;2023-07-31T02:50:15;11.70;99.90
11284;DHT22;5698;47.332;11.180;2023-07-31T02:52:43;11.80;99.90
11284;DHT22;5698;47.332;11.180;2023-07-31T02:55:10;11.80;99.90
11284;DHT22;5698;47.332;11.180;2023-07-31T02:57:37;11.80;99.90
11284;DHT22;5698;47.332;11.180;2023-07-31T03:00:06;11.80;99.90
11284;DHT22;5698;47.332;11.180;2023-07-31T03:02:33;11.80;99.90
11284;DHT22;5698;47.332;11.180;2023-07-31T03:05:00;11.80;99.90
11284;DHT22;5698;47.332;11.180;2023-07-31T03:07:27;11.80;99.90
11284;DHT22;5698;47.332;11.180;2023-07-31T03:09:55;11.70;99.90
11284;DHT22;5698;47.332;11.180;2023-07-31T03:12:23;11.70;99.90
11284;DHT22;5698;47.332;11.180;2023-07-31T03:14:50;11.60;99.90
11284;DHT22;5698;47.332;11.180;2023-07-31T03:17:17;11.60;99.90
11284;DHT22;5698;47.332;11.180;2023-07-31T03:19:44;11.60;99.90
11284;DHT22;5698;47.332;11.180;2023-07-31T03:22:11;11.60;99.90
11284;DHT22;5698;47.332;11.180;2023-07-31T03:24:38;11.70;99.90
11284;DHT22;5698;47.332;11.180;2023-07-31T03:27:06;11.70;99.90
11284;DHT22;5698;47.332;11.180;2023-07-31T03:29:33;11.70;99.90
11284;DHT22;5698;47.332;11.180;2023-07-31T03:32:00;11.80;99.90
11284;DHT22;5698;47.332;11.180;2023-07-31T03:34:27;11.80;99.90
11284;DHT22;5698;47.332;11.180;2023-07-31T03:36:54;11.80;99.90
11284;DHT22;5698;47.332;11.180;2023-07-31T03:39:21;11.80;99.90
11284;DHT22;5698;47.332;11.180;2023-07-31T03:41:48;11.80;99.90
11284;DHT22;5698;47.332;11.180;2023-07-31T03:44:16;11.90;99.90
11284;DHT22;5698;47.332;11.180;2023-07-31T03:46:43;11.90;99.90
11284;DHT22;5698;47.332;11.180;2023-07-31T03:49:10;11.90;99.90
11284;DHT22;5698;47.332;11.180;2023-07-31T03:51:37;11.90;99.90
11284;DHT22;5698;47.332;11.180;2023-07-31T03:54:04;11.90;99.90
11284;DHT22;5698;47.332;11.180;2023-07-31T03:56:33;11.90;99.90
11284;DHT22;5698;47.332;11.180;2023-07-31T03:59:00;11.90;99.90
11284;DHT22;5698;47.332;11.180;2023-07-31T04:01:28;11.90;99.90
11284;DHT22;5698;47.332;11.180;2023-07-31T04:03:55;11.90;99.90
11284;DHT22;5698;47.332;11.180;2023-07-31T04:06:22;11.90;99.90
11284;DHT22;5698;47.332;11.180;2023-07-31T04:08:49;11.90;99.90
11284;DHT22;5698;47.332;11.180;2023-07-31T04:11:16;12.00;99.90
11284;DHT22;5698;47.332;11.180;2023-07-31T04:13:43;12.00;99.90
11284;DHT22;5698;47.332;11.180;2023-07-31T04:16:10;12.00;99.90
11284;DHT22;5698;47.332;11.180;2023-07-31T04:18:38;12.00;99.90
11284;DHT22;5698;47.332;11.180;2023-07-31T04:21:05;12.00;99.90
11284;DHT22;5698;47.332;11.180;2023-07-31T04:23:32;12.00;99.90
11284;DHT22;5698;47.332;11.180;2023-07-31T04:25:59;12.00;99.90
11284;DHT22;5698;47.332;11.180;2023-07-31T04:28:26;12.00;99.90
11284;DHT22;5698;47.332;11.180;2023-07-31T04:30:53;12.00;99.90
11284;DHT22;5698;47.332;11.180;2023-07-31T04:33:20;12.00;99.90
11284;DHT22;5698;47.332;11.180;2023-07-31T04:35:52;12.00;99.90
11284;DHT22;5698;47.332;11.180;2023-07-31T04:38:20;12.00;99.90
11284;DHT22;5698;47.332;11.180;2023-07-31T04:40:47;12.00;99.90
11284;DHT22;5698;47.332;11.180;2023-07-31T04:43:15;12.00;99.90
11284;DHT22;5698;47.332;11.180;2023-07-31T04:45:45;12.10;99.90
11284;DHT22;5698;47.332;11.180;2023-07-31T04:48:12;12.10;99.90
11284;DHT22;5698;47.332;11.180;2023-07-31T04:50:39;12.10;99.90
11284;DHT22;5698;47.332;11.180;2023-07-31T04:53:08;12.20;99.90
11284;DHT22;5698;47.332;11.180;2023-07-31T04:55:35;12.20;99.90
11284;DHT22;5698;47.332;11.180;2023-07-31T04:58:02;12.20;99.90
11284;DHT22;5698;47.332;11.180;2023-07-31T05:00:29;12.20;99.90
11284;DHT22;5698;47.332;11.180;2023-07-31T05:02:55;12.30;99.90
11284;DHT22;5698;47.332;11.180;2023-07-31T05:05:22;12.30;99.90
11284;DHT22;5698;47.332;11.180;2023-07-31T05:07:49;12.40;99.90
11284;DHT22;5698;47.332;11.180;2023-07-31T05:10:18;12.40;99.90
11284;DHT22;5698;47.332;11.180;2023-07-31T05:12:45;12.40;99.90
11284;DHT22;5698;47.332;11.180;2023-07-31T05:15:12;12.50;99.90
11284;DHT22;5698;47.332;11.180;2023-07-31T05:17:38;12.50;99.90
11284;DHT22;5698;47.332;11.180;2023-07-31T05:20:07;12.50;99.90
11284;DHT22;5698;47.332;11.180;2023-07-31T05:22:34;12.50;99.90
11284;DHT22;5698;47.332;11.180;2023-07-31T05:25:01;12.50;99.90
11284;DHT22;5698;47.332;11.180;2023-07-31T05:27:31;12.60;99.90
11284;DHT22;5698;47.332;11.180;2023-07-31T05:29:58;12.60;99.90
11284;DHT22;5698;47.332;11.180;2023-07-31T05:32:25;12.50;99.90
11284;DHT22;5698;47.332;11.180;2023-07-31T05:34:52;12.50;99.90
11284;DHT22;5698;47.332;11.180;2023-07-31T05:37:19;12.60;99.90
11284;DHT22;5698;47.332;11.180;2023-07-31T05:39:46;12.60;99.90
11284;DHT22;5698;47.332;11.180;2023-07-31T05:42:13;12.50;99.90
11284;DHT22;5698;47.332;11.180;2023-07-31T05:44:42;12.60;99.90
11284;DHT22;5698;47.332;11.180;2023-07-31T05:47:09;12.70;99.90
11284;DHT22;5698;47.332;11.180;2023-07-31T05:49:36;12.70;99.90
11284;DHT22;5698;47.332;11.180;2023-07-31T05:52:03;12.80;99.90
11284;DHT22;5698;47.332;11.180;2023-07-31T05:54:32;12.90;99.90
11284;DHT22;5698;47.332;11.180;2023-07-31T05:56:59;12.90;99.90
11284;DHT22;5698;47.332;11.180;2023-07-31T05:59:26;13.00;99.90
11284;DHT22;5698;47.332;11.180;2023-07-31T06:01:54;13.10;99.90
11284;DHT22;5698;47.332;11.180;2023-07-31T06:04:21;13.20;99.90
11284;DHT22;5698;47.332;11.180;2023-07-31T06:06:51;13.30;99.90
11284;DHT22;5698;47.332;11.180;2023-07-31T06:09:17;13.30;99.90
11284;DHT22;5698;47.332;11.180;2023-07-31T06:11:45;13.30;99.90
11284;DHT22;5698;47.332;11.180;2023-07-31T06:14:12;13.40;99.90
11284;DHT22;5698;47.332;11.180;2023-07-31T06:16:40;13.40;99.90
11284;DHT22;5698;47.332;11.180;2023-07-31T06:19:08;13.40;99.90
11284;DHT22;5698;47.332;11.180;2023-07-31T06:21:35;13.50;99.90
11284;DHT22;5698;47.332;11.180;2023-07-31T06:24:04;13.60;99.90
11284;DHT22;5698;47.332;11.180;2023-07-31T06:26:31;13.50;99.90
11284;DHT22;5698;47.332;11.180;2023-07-31T06:28:58;13.50;99.90
11284;DHT22;5698;47.332;11.180;2023-07-31T06:31:25;13.50;99.90
11284;DHT22;5698;47.332;11.180;2023-07-31T06:33:52;13.60;99.90
11284;DHT22;5698;47.332;11.180;2023-07-31T06:36:21;13.60;99.90
11284;DHT22;5698;47.332;11.180;2023-07-31T06:38:48;13.70;99.90
11284;DHT22;5698;47.332;11.180;2023-07-31T06:41:15;13.70;99.90
11284;DHT22;5698;47.332;11.180;2023-07-31T06:43:41;13.70;99.90
11284;DHT22;5698;47.332;11.180;2023-07-31T06:46:09;13.80;99.90
11284;DHT22;5698;47.332;11.180;2023-07-31T06:48:36;13.80;99.90
11284;DHT22;5698;47.332;11.180;2023-07-31T06:51:03;13.80;99.90
11284;DHT22;5698;47.332;11.180;2023-07-31T06:53:31;13.80;99.90
11284;DHT22;5698;47.332;11.180;2023-07-31T06:55:58;13.80;99.90
11284;DHT22;5698;47.332;11.180;2023-07-31T06:58:25;13.90;99.90
11284;DHT22;5698;47.332;11.180;2023-07-31T07:00:52;13.90;99.90
11284;DHT22;5698;47.332;11.180;2023-07-31T07:03:19;14.00;99.90
11284;DHT22;5698;47.332;11.180;2023-07-31T07:05:46;14.00;99.90
11284;DHT22;5698;47.332;11.180;2023-07-31T07:08:13;14.10;99.90
11284;DHT22;5698;47.332;11.180;2023-07-31T07:10:42;14.20;99.90
11284;DHT22;5698;47.332;11.180;2023-07-31T07:13:09;14.20;99.90
11284;DHT22;5698;47.332;11.180;2023-07-31T07:15:36;14.20;99.90
11284;DHT22;5698;47.332;11.180;2023-07-31T07:18:03;14.20;99.90
11284;DHT22;5698;47.332;11.180;2023-07-31T07:20:30;14.20;99.90
11284;DHT22;5698;47.332;11.180;2023-07-31T07:22:57;14.30;99.90
11284;DHT22;5698;47.332;11.180;2023-07-31T07:25:24;14.40;99.90
11284;DHT22;5698;47.332;11.180;2023-07-31T07:27:52;14.40;99.90
11284;DHT22;5698;47.332;11.180;2023-07-31T07:30:19;14.40;99.90
11284;DHT22;5698;47.332;11.180;2023-07-31T07:32:46;14.40;99.90
11284;DHT22;5698;47.332;11.180;2023-07-31T07:35:13;14.50;99.90
11284;DHT22;5698;47.332;11.180;2023-07-31T07:37:40;14.50;99.90
11284;DHT22;5698;47.332;11.180;2023-07-31T07:40:08;14.50;99.90
11284;DHT22;5698;47.332;11.180;2023-07-31T07:42:35;14.50;99.90
11284;DHT22;5698;47.332;11.180;2023-07-31T07:45:05;14.50;99.90
11284;DHT22;5698;47.332;11.180;2023-07-31T07:47:32;14.60;99.90
11284;DHT22;5698;47.332;11.180;2023-07-31T07:49:59;14.50;99.90
11284;DHT22;5698;47.332;11.180;2023-07-31T07:52:26;14.60;99.90
11284;DHT22;5698;47.332;11.180;2023-07-31T07:54:52;14.70;99.90
11284;DHT22;5698;47.332;11.180;2023-07-31T07:57:19;14.80;99.90
11284;DHT22;5698;47.332;11.180;2023-07-31T07:59:46;14.80;99.90
11284;DHT22;5698;47.332;11.180;2023-07-31T08:02:15;14.90;99.90
11284;DHT22;5698;47.332;11.180;2023-07-31T08:04:41;14.90;99.90
11284;DHT22;5698;47.332;11.180;2023-07-31T08:07:10;14.90;99.90
11284;DHT22;5698;47.332;11.180;2023-07-31T08:09:37;15.00;99.90
11284;DHT22;5698;47.332;11.180;2023-07-31T08:12:05;15.20;99.90
11284;DHT22;5698;47.332;11.180;2023-07-31T08:14:32;15.20;99.90
11284;DHT22;5698;47.332;11.180;2023-07-31T08:17:00;15.30;99.90
11284;DHT22;5698;47.332;11.180;2023-07-31T08:19:28;15.40;99.90
11284;DHT22;5698;47.332;11.180;2023-07-31T08:21:55;15.50;99.90
11284;DHT22;5698;47.332;11.180;2023-07-31T08:24:22;15.50;99.90
11284;DHT22;5698;47.332;11.180;2023-07-31T08:26:49;15.50;99.90
11284;DHT22;5698;47.332;11.180;2023-07-31T08:29:17;15.60;99.90
11284;DHT22;5698;47.332;11.180;2023-07-31T08:31:44;15.80;99.90
11284;DHT22;5698;47.332;11.180;2023-07-31T08:34:11;15.90;99.90
11284;DHT22;5698;47.332;11.180;2023-07-31T08:36:39;16.10;99.90
11284;DHT22;5698;47.332;11.180;2023-07-31T08:39:06;16.10;99.90
11284;DHT22;5698;47.332;11.180;2023-07-31T08:41:37;16.10;99.90
11284;DHT22;5698;47.332;11.180;2023-07-31T08:44:04;16.20;99.90
11284;DHT22;5698;47.332;11.180;2023-07-31T08:46:32;16.30;99.90
11284;DHT22;5698;47.332;11.180;2023-07-31T08:49:02;16.30;99.90
11284;DHT22;5698;47.332;11.180;2023-07-31T08:51:30;16.60;99.90
11284;DHT22;5698;47.332;11.180;2023-07-31T08:53:59;16.60;99.90
11284;DHT22;5698;47.332;11.180;2023-07-31T08:56:26;16.70;99.90
11284;DHT22;5698;47.332;11.180;2023-07-31T08:58:54;16.80;99.90
11284;DHT22;5698;47.332;11.180;2023-07-31T09:01:22;16.90;99.90
11284;DHT22;5698;47.332;11.180;2023-07-31T09:03:51;17.00;99.90
11284;DHT22;5698;47.332;11.180;2023-07-31T09:06:19;17.10;99.90
11284;DHT22;5698;47.332;11.180;2023-07-31T09:08:47;17.10;99.90
11284;DHT22;5698;47.332;11.180;2023-07-31T09:11:16;17.10;99.90
11284;DHT22;5698;47.332;11.180;2023-07-31T09:13:43;17.10;99.90
11284;DHT22;5698;47.332;11.180;2023-07-31T09:16:12;17.30;99.90
11284;DHT22;5698;47.332;11.180;2023-07-31T09:18:53;17.50;99.90
11284;DHT22;5698;47.332;11.180;2023-07-31T09:21:22;17.70;99.90
11284;DHT22;5698;47.332;11.180;2023-07-31T09:23:49;17.70;99.90
11284;DHT22;5698;47.332;11.180;2023-07-31T09:26:34;17.70;99.90
11284;DHT22;5698;47.332;11.180;2023-07-31T09:29:04;17.60;99.90
11284;DHT22;5698;47.332;11.180;2023-07-31T09:31:38;17.70;99.90
11284;DHT22;5698;47.332;11.180;2023-07-31T09:34:05;17.90;99.90
11284;DHT22;5698;47.332;11.180;2023-07-31T09:36:33;18.10;99.90
11284;DHT22;5698;47.332;11.180;2023-07-31T09:39:09;18.40;99.90
11284;DHT22;5698;47.332;11.180;2023-07-31T09:41:38;18.60;99.90
11284;DHT22;5698;47.332;11.180;2023-07-31T09:44:06;18.80;99.90
11284;DHT22;5698;47.332;11.180;2023-07-31T09:46:35;18.90;99.90
11284;DHT22;5698;47.332;11.180;2023-07-31T09:49:07;19.10;99.90
11284;DHT22;5698;47.332;11.180;2023-07-31T09:51:36;19.20;99.90
11284;DHT22;5698;47.332;11.180;2023-07-31T09:54:09;19.60;99.90
11284;DHT22;5698;47.332;11.180;2023-07-31T09:56:41;19.80;99.90
11284;DHT22;5698;47.332;11.180;2023-07-31T09:59:12;19.90;99.90
11284;DHT22;5698;47.332;11.180;2023-07-31T10:01:40;20.10;99.70
11284;DHT22;5698;47.332;11.180;2023-07-31T10:04:08;20.00;99.80
11284;DHT22;5698;47.332;11.180;2023-07-31T10:06:36;20.00;99.90
11284;DHT22;5698;47.332;11.180;2023-07-31T10:09:04;20.10;99.40
11284;DHT22;5698;47.332;11.180;2023-07-31T10:11:35;20.10;99.90
11284;DHT22;5698;47.332;11.180;2023-07-31T10:14:07;20.40;99.90
11284;DHT22;5698;47.332;11.180;2023-07-31T10:16:38;20.60;99.90
11284;DHT22;5698;47.332;11.180;2023-07-31T10:19:06;20.80;99.90
11284;DHT22;5698;47.332;11.180;2023-07-31T10:21:35;20.90;99.90
11284;DHT22;5698;47.332;11.180;2023-07-31T10:24:04;21.10;99.90
11284;DHT22;5698;47.332;11.180;2023-07-31T10:26:31;21.20;99.90
11284;DHT22;5698;47.332;11.180;2023-07-31T10:28:59;21.40;99.90
11284;DHT22;5698;47.332;11.180;2023-07-31T10:31:28;21.60;99.90
11284;DHT22;5698;47.332;11.180;2023-07-31T10:33:57;21.70;99.90
11284;DHT22;5698;47.332;11.180;2023-07-31T10:36:25;21.90;99.90
11284;DHT22;5698;47.332;11.180;2023-07-31T10:38:52;22.00;99.90
11284;DHT22;5698;47.332;11.180;2023-07-31T10:41:28;22.30;99.90
11284;DHT22;5698;47.332;11.180;2023-07-31T10:43:57;22.50;98.10
11284;DHT22;5698;47.332;11.180;2023-07-31T10:46:24;22.60;97.40
11284;DHT22;5698;47.332;11.180;2023-07-31T10:48:58;22.80;96.70
11284;DHT22;5698;47.332;11.180;2023-07-31T10:51:32;22.90;96.30
11284;DHT22;5698;47.332;11.180;2023-07-31T10:54:11;23.20;96.00
11284;DHT22;5698;47.332;11.180;2023-07-31T10:56:38;23.30;95.10
11284;DHT22;5698;47.332;11.180;2023-07-31T10:59:05;23.50;93.10
11284;DHT22;5698;47.332;11.180;2023-07-31T11:01:56;23.30;92.40
11284;DHT22;5698;47.332;11.180;2023-07-31T11:04:26;23.50;93.40
11284;DHT22;5698;47.332;11.180;2023-07-31T11:06:57;23.90;94.60
11284;DHT22;5698;47.332;11.180;2023-07-31T11:09:27;24.40;93.20
11284;DHT22;5698;47.332;11.180;2023-07-31T11:11:54;24.90;91.60
11284;DHT22;5698;47.332;11.180;2023-07-31T11:14:22;25.40;90.30
11284;DHT22;5698;47.332;11.180;2023-07-31T11:16:50;25.50;87.60
11284;DHT22;5698;47.332;11.180;2023-07-31T11:19:21;25.40;88.80
11284;DHT22;5698;47.332;11.180;2023-07-31T11:21:51;25.50;86.20
11284;DHT22;5698;47.332;11.180;2023-07-31T11:24:18;25.40;87.20
11284;DHT22;5698;47.332;11.180;2023-07-31T11:26:49;25.20;87.10
11284;DHT22;5698;47.332;11.180;2023-07-31T11:29:17;24.80;86.50
11284;DHT22;5698;47.332;11.180;2023-07-31T11:31:46;24.70;89.20
11284;DHT22;5698;47.332;11.180;2023-07-31T11:34:14;24.70;90.00
11284;DHT22;5698;47.332;11.180;2023-07-31T11:36:54;24.50;86.80
11284;DHT22;5698;47.332;11.180;2023-07-31T11:39:21;24.70;85.80
11284;DHT22;5698;47.332;11.180;2023-07-31T11:41:48;24.70;83.60
11284;DHT22;5698;47.332;11.180;2023-07-31T11:44:15;24.90;85.60
11284;DHT22;5698;47.332;11.180;2023-07-31T11:46:42;24.90;84.90
11284;DHT22;5698;47.332;11.180;2023-07-31T11:49:10;25.00;84.30
11284;DHT22;5698;47.332;11.180;2023-07-31T11:51:37;24.80;85.80
11284;DHT22;5698;47.332;11.180;2023-07-31T11:54:06;24.80;84.10
11284;DHT22;5698;47.332;11.180;2023-07-31T11:56:33;24.60;82.40
11284;DHT22;5698;47.332;11.180;2023-07-31T11:59:01;24.80;84.30
11284;DHT22;5698;47.332;11.180;2023-07-31T12:01:31;24.80;81.20
11284;DHT22;5698;47.332;11.180;2023-07-31T12:03:59;24.80;80.50
11284;DHT22;5698;47.332;11.180;2023-07-31T12:06:33;24.70;82.00
11284;DHT22;5698;47.332;11.180;2023-07-31T12:09:02;25.00;85.60
11284;DHT22;5698;47.332;11.180;2023-07-31T12:11:31;25.40;86.90
11284;DHT22;5698;47.332;11.180;2023-07-31T12:13:58;25.90;85.00
11284;DHT22;5698;47.332;11.180;2023-07-31T12:16:26;26.30;81.60
11284;DHT22;5698;47.332;11.180;2023-07-31T12:18:53;26.60;83.00
11284;DHT22;5698;47.332;11.180;2023-07-31T12:21:21;26.70;81.20
11284;DHT22;5698;47.332;11.180;2023-07-31T12:23:47;26.90;80.40
11284;DHT22;5698;47.332;11.180;2023-07-31T12:26:16;27.20;79.70
11284;DHT22;5698;47.332;11.180;2023-07-31T12:28:46;27.50;78.10
11284;DHT22;5698;47.332;11.180;2023-07-31T12:31:14;27.90;77.70
11284;DHT22;5698;47.332;11.180;2023-07-31T12:33:43;27.90;74.30
11284;DHT22;5698;47.332;11.180;2023-07-31T12:36:11;27.90;73.40
11284;DHT22;5698;47.332;11.180;2023-07-31T12:38:39;27.90;76.20
11284;DHT22;5698;47.332;11.180;2023-07-31T12:41:06;28.10;75.20
11284;DHT22;5698;47.332;11.180;2023-07-31T12:43:33;28.30;69.70
11284;DHT22;5698;47.332;11.180;2023-07-31T12:46:01;28.50;71.30
11284;DHT22;5698;47.332;11.180;2023-07-31T12:48:29;28.40;72.50
11284;DHT22;5698;47.332;11.180;2023-07-31T12:50:56;28.60;72.90
11284;DHT22;5698;47.332;11.180;2023-07-31T12:53:23;28.70;69.40
11284;DHT22;5698;47.332;11.180;2023-07-31T12:55:50;29.00;69.30
11284;DHT22;5698;47.332;11.180;2023-07-31T12:58:17;29.10;69.20
11284;DHT22;5698;47.332;11.180;2023-07-31T13:00:43;29.20;69.10
11284;DHT22;5698;47.332;11.180;2023-07-31T13:03:12;29.20;67.70
11284;DHT22;5698;47.332;11.180;2023-07-31T13:05:39;29.10;66.80
11284;DHT22;5698;47.332;11.180;2023-07-31T13:08:06;29.10;67.00
11284;DHT22;5698;47.332;11.180;2023-07-31T13:10:33;29.10;64.40
11284;DHT22;5698;47.332;11.180;2023-07-31T13:13:00;29.10;65.20
11284;DHT22;5698;47.332;11.180;2023-07-31T13:15:27;28.90;62.90
11284;DHT22;5698;47.332;11.180;2023-07-31T13:17:54;28.60;64.80
11284;DHT22;5698;47.332;11.180;2023-07-31T13:20:22;28.50;66.30
11284;DHT22;5698;47.332;11.180;2023-07-31T13:22:49;28.60;67.60
11284;DHT22;5698;47.332;11.180;2023-07-31T13:25:16;28.20;64.10
11284;DHT22;5698;47.332;11.180;2023-07-31T13:27:43;28.00;68.50
11284;DHT22;5698;47.332;11.180;2023-07-31T13:30:10;27.90;67.90
11284;DHT22;5698;47.332;11.180;2023-07-31T13:32:37;27.80;72.90
11284;DHT22;5698;47.332;11.180;2023-07-31T13:35:05;27.50;71.30
11284;DHT22;5698;47.332;11.180;2023-07-31T13:37:33;27.40;72.60
11284;DHT22;5698;47.332;11.180;2023-07-31T13:40:00;27.40;72.90
11284;DHT22;5698;47.332;11.180;2023-07-31T13:42:30;27.20;73.40
11284;DHT22;5698;47.332;11.180;2023-07-31T13:44:57;27.00;73.00
11284;DHT22;5698;47.332;11.180;2023-07-31T13:47:24;26.80;74.90
11284;DHT22;5698;47.332;11.180;2023-07-31T13:49:50;26.60;75.80
11284;DHT22;5698;47.332;11.180;2023-07-31T13:52:17;26.40;73.90
11284;DHT22;5698;47.332;11.180;2023-07-31T13:54:46;26.10;74.10
11284;DHT22;5698;47.332;11.180;2023-07-31T13:57:13;25.90;75.40
11284;DHT22;5698;47.332;11.180;2023-07-31T13:59:40;25.70;74.90
11284;DHT22;5698;47.332;11.180;2023-07-31T14:02:07;25.60;75.90
11284;DHT22;5698;47.332;11.180;2023-07-31T14:04:34;25.50;74.00
11284;DHT22;5698;47.332;11.180;2023-07-31T14:07:00;25.40;75.90
11284;DHT22;5698;47.332;11.180;2023-07-31T14:09:28;25.20;74.70
11284;DHT22;5698;47.332;11.180;2023-07-31T14:11:57;25.10;75.20
11284;DHT22;5698;47.332;11.180;2023-07-31T14:14:24;25.10;74.70
11284;DHT22;5698;47.332;11.180;2023-07-31T14:16:51;25.00;76.00
11284;DHT22;5698;47.332;11.180;2023-07-31T14:19:17;25.00;76.90
11284;DHT22;5698;47.332;11.180;2023-07-31T14:21:44;25.00;76.20
11284;DHT22;5698;47.332;11.180;2023-07-31T14:24:11;25.00;77.10
11284;DHT22;5698;47.332;11.180;2023-07-31T14:26:38;25.00;76.80
11284;DHT22;5698;47.332;11.180;2023-07-31T14:29:06;24.90;77.90
11284;DHT22;5698;47.332;11.180;2023-07-31T14:31:33;24.70;77.50
11284;DHT22;5698;47.332;11.180;2023-07-31T14:34:00;24.60;78.10
11284;DHT22;5698;47.332;11.180;2023-07-31T14:36:27;24.50;78.40
11284;DHT22;5698;47.332;11.180;2023-07-31T14:38:54;24.40;79.00
11284;DHT22;5698;47.332;11.180;2023-07-31T14:41:21;24.20;79.40
11284;DHT22;5698;47.332;11.180;2023-07-31T14:43:48;24.10;80.60
11284;DHT22;5698;47.332;11.180;2023-07-31T14:46:16;23.90;81.70
11284;DHT22;5698;47.332;11.180;2023-07-31T14:48:43;23.80;81.70
11284;DHT22;5698;47.332;11.180;2023-07-31T14:51:10;23.70;82.10
11284;DHT22;5698;47.332;11.180;2023-07-31T14:53:37;23.50;83.00
11284;DHT22;5698;47.332;11.180;2023-07-31T14:56:04;23.40;84.80
11284;DHT22;5698;47.332;11.180;2023-07-31T14:58:31;23.20;84.20
11284;DHT22;5698;47.332;11.180;2023-07-31T15:00:58;23.10;84.80
11284;DHT22;5698;47.332;11.180;2023-07-31T15:03:26;23.00;85.80
11284;DHT22;5698;47.332;11.180;2023-07-31T15:05:53;22.90;85.90
11284;DHT22;5698;47.332;11.180;2023-07-31T15:08:20;22.90;85.40
11284;DHT22;5698;47.332;11.180;2023-07-31T15:10:47;22.90;86.30
11284;DHT22;5698;47.332;11.180;2023-07-31T15:13:14;22.90;86.40
11284;DHT22;5698;47.332;11.180;2023-07-31T15:15:41;22.80;86.80
11284;DHT22;5698;47.332;11.180;2023-07-31T15:18:08;22.70;86.80
11284;DHT22;5698;47.332;11.180;2023-07-31T15:20:36;22.70;87.30
11284;DHT22;5698;47.332;11.180;2023-07-31T15:23:03;22.60;86.30
11284;DHT22;5698;47.332;11.180;2023-07-31T15:25:30;22.50;87.30
11284;DHT22;5698;47.332;11.180;2023-07-31T15:27:57;22.50;86.80
11284;DHT22;5698;47.332;11.180;2023-07-31T15:30:24;22.60;87.30
11284;DHT22;5698;47.332;11.180;2023-07-31T15:32:52;22.60;87.70
11284;DHT22;5698;47.332;11.180;2023-07-31T15:35:19;22.60;88.50
11284;DHT22;5698;47.332;11.180;2023-07-31T15:37:47;22.50;88.90